Waltham Station, Canada
Current Conditions -  °F | °C
As of 11:00 PM on Tuesday 25 Nov 2014 (Local Time) from CYWA Reporting Station
Overcast Overcast  
Wind Chill: 18°   Ceiling: 3400
Heat Index: 28°   Visibility: 9mi
Dew Point: 16°   Wind: 13mph
Humidity: 59%   Direction: 280°W
Pressure: 30.1"   Gusts: NA
Location:  45.91°N, 76.89°W
Report Text: CYWA 260400Z AUTO 28011KT 9SM OVC034 M02/M09 A3010 RMK SLP201
Loading
Personal Weather Stations






























Interactive Weather Map New forecast layout! Learn more

10-Day Weather Forecast

Advertisements
Track Severe Weather on mobile